• Join FlightAware (Why Join?)
  • Login
  • US Flag 
04:28PM EDT


 

Airport Tracker/Info


-or-


 

Live Flight TrackerFlight Track Log ✈ AAL533 ✈ 18-Aug-2013 ✈ KMCO - KMIA

Flight Track Log - Related Links

Times and Time Zones

All times are in EDT time to prevent confusion due to time zone crossing. See the AAL533 flight status page for this flight to view local times or setup timezone preferences in your user account.

Time Position Orientation Groundspeed Altitude Reporting Facility
EDT Latitude Longitude Course Direction KTS MPH feet Rate Location/Type
02:18PM 28.4333 -81.3167 90° East 149 171 600  Level Orlando TRACON
02:19PM 28.3833 -81.2833 150° Southeast 203 234 3,000 2,820 Climbing Orlando TRACON
02:20PM 28.2816 -81.0002 122° Southeast  Level FlightAware Approximate
02:20PM 28.3500 -81.2333 127° Southeast 242 278 6,300  Level Orlando TRACON
02:21PM 28.2278 -80.9034 122° Southeast  Level FlightAware Approximate
02:22PM 28.1836 -80.8007 114° Southeast  Level FlightAware Approximate
02:22PM 28.3044 -81.0419 105° East 272 313 12,400  Level Miami Center
02:23PM 28.1333 -80.7135 90° East  Level FlightAware Approximate
02:23PM 28.2817 -80.9633 108° East 306 352 14,700  Level Miami Center
02:24PM 28.2494 -80.8467 107° East 348 400 16,000 600 Climbing Miami Center
02:25PM 28.1672 -80.8014 154° Southeast 335 386 16,000 540 Level Miami Center
02:26PM 28.0522 -80.8139 185° South 350 403 17,100 1,800 Climbing Miami Center
02:27PM 27.9350 -80.8217 183° South 373 429 19,700 2,400 Climbing Miami Center
02:28PM 27.8536 -80.7458 141° Southeast 352 405 21,900 1,560 Climbing Miami Center
02:29PM 27.7853 -80.6475 128° Southeast 365 420 22,900 480 Climbing Miami Center
02:30PM 27.7147 -80.5467 128° Southeast 380 437 22,900  Level Miami Center
02:31PM 27.6247 -80.4733 144° Southeast 397 457 22,900  Level Miami Center
02:32PM 27.5175 -80.4278 159° South 397 457 22,900  Level Miami Center
02:33PM 27.4078 -80.3822 160° South 409 471 22,900  Level Miami Center
02:34PM 27.2983 -80.3369 160° South 419 482 22,900  Level Miami Center
02:35PM 27.1886 -80.2964 162° South 419 482 22,900 -600 Level Miami Center
02:36PM 27.0792 -80.2486 159° South 419 482 21,800 -1,320 Descending Miami Center
02:37PM 26.9694 -80.2058 161° South 419 482 20,300 -1,320 Descending Miami Center
02:38PM 26.8578 -80.1583 159° South 419 482 19,000 -1,380 Descending Miami Center
02:39PM 26.7417 -80.1156 162° South 422 486 17,600 -1,680 Descending Miami Center
02:40PM 26.6400 -80.0825 164° South 406 467 16,100 -1,860 Descending Miami Center
02:41PM 26.5194 -80.0583 170° South 394 453 13,800 -1,500 Descending Miami Center
02:42PM 26.4153 -80.0417 172° South 342 394 13,000 -720 Descending Miami Center
02:43PM 26.3217 -80.0300 174° South 338 389 12,400 -1,140 Descending Miami Center
02:44PM 26.2361 -80.0208 175° South 331 381 10,800 -1,320 Descending Miami Center
02:45PM 26.1458 -80.0461 194° South 321 369 9,900 -600 Descending Miami Center
02:46PM 26.1292 -80.0478 185° South 331 381 9,900 -840 Level Miami Center
02:47PM 26.0367 -80.0756 195° South 311 358 8,600 -1,320 Descending Miami Center
02:47PM 25.9839 -80.0925 196° South 283 326 7,900 -420 Descending Miami Center
02:48PM 25.9364 -80.1653 234° Southwest 298 343 8,000 -60 Climbing Miami Center
02:49PM 25.9178 -80.2500 256° West 256 295 7,800 -1,080 Descending Miami Center
02:50PM 25.8994 -80.3167 253° West 251 289 6,000 -1,740 Descending Miami Center
02:51PM 25.9125 -80.3908 281° West 247 284 4,500 -1,680 Descending Miami Center
02:52PM 25.8881 -80.4503 245° Southwest 228 262 2,500 -1,200 Descending Miami Center
02:53PM 25.8533 -80.4169 139° Southeast 176 203 2,100 -660 Descending Miami Center
02:54PM 25.8292 -80.3747 122° Southeast 147 169 1,300 -720 Descending Miami Center
02:55PM 25.8133 -80.3372 115° Southeast 124 143 700 -600 Descending Miami Center